sensor_id;sensor_type;location;lat;lon;timestamp;temperature;humidity
3994;DHT22;2011;48.238;13.948;2022-12-10T00:00:46;1.50;99.90
3994;DHT22;2011;48.238;13.948;2022-12-10T00:03:13;1.50;99.90
3994;DHT22;2011;48.238;13.948;2022-12-10T00:05:39;1.60;99.90
3994;DHT22;2011;48.238;13.948;2022-12-10T00:08:06;1.60;99.90
3994;DHT22;2011;48.238;13.948;2022-12-10T00:10:33;1.60;99.90
3994;DHT22;2011;48.238;13.948;2022-12-10T00:13:00;1.60;99.90
3994;DHT22;2011;48.238;13.948;2022-12-10T00:15:27;1.60;99.90
3994;DHT22;2011;48.238;13.948;2022-12-10T00:17:55;1.70;99.90
3994;DHT22;2011;48.238;13.948;2022-12-10T00:20:22;1.70;99.90
3994;DHT22;2011;48.238;13.948;2022-12-10T00:22:49;1.70;99.90
3994;DHT22;2011;48.238;13.948;2022-12-10T00:25:16;1.60;99.90
3994;DHT22;2011;48.238;13.948;2022-12-10T00:27:43;1.60;99.90
3994;DHT22;2011;48.238;13.948;2022-12-10T00:30:11;1.60;99.90
3994;DHT22;2011;48.238;13.948;2022-12-10T00:32:38;1.60;99.90
3994;DHT22;2011;48.238;13.948;2022-12-10T00:35:07;1.60;99.90
3994;DHT22;2011;48.238;13.948;2022-12-10T00:37:34;1.60;99.90
3994;DHT22;2011;48.238;13.948;2022-12-10T00:40:01;1.70;99.90
3994;DHT22;2011;48.238;13.948;2022-12-10T00:42:27;1.60;99.90
3994;DHT22;2011;48.238;13.948;2022-12-10T00:44:54;1.70;99.90
3994;DHT22;2011;48.238;13.948;2022-12-10T00:47:21;1.70;99.90
3994;DHT22;2011;48.238;13.948;2022-12-10T00:49:48;1.70;99.90
3994;DHT22;2011;48.238;13.948;2022-12-10T00:52:16;1.70;99.90
3994;DHT22;2011;48.238;13.948;2022-12-10T00:54:43;1.70;99.90
3994;DHT22;2011;48.238;13.948;2022-12-10T00:57:10;1.80;99.90
3994;DHT22;2011;48.238;13.948;2022-12-10T00:59:37;1.80;99.90
3994;DHT22;2011;48.238;13.948;2022-12-10T01:02:04;1.80;99.90
3994;DHT22;2011;48.238;13.948;2022-12-10T01:04:31;1.80;99.90
3994;DHT22;2011;48.238;13.948;2022-12-10T01:06:58;1.80;99.90
3994;DHT22;2011;48.238;13.948;2022-12-10T01:09:28;1.80;99.90
3994;DHT22;2011;48.238;13.948;2022-12-10T01:11:59;1.80;99.90
3994;DHT22;2011;48.238;13.948;2022-12-10T01:14:29;1.80;99.90
3994;DHT22;2011;48.238;13.948;2022-12-10T01:16:58;1.70;99.90
3994;DHT22;2011;48.238;13.948;2022-12-10T01:19:25;1.70;99.90
3994;DHT22;2011;48.238;13.948;2022-12-10T01:21:53;1.60;99.90
3994;DHT22;2011;48.238;13.948;2022-12-10T01:24:20;1.60;99.90
3994;DHT22;2011;48.238;13.948;2022-12-10T01:26:49;1.60;99.90
3994;DHT22;2011;48.238;13.948;2022-12-10T01:29:16;1.60;99.90
3994;DHT22;2011;48.238;13.948;2022-12-10T01:31:43;1.50;99.90
3994;DHT22;2011;48.238;13.948;2022-12-10T01:34:14;1.50;99.90
3994;DHT22;2011;48.238;13.948;2022-12-10T01:36:42;1.40;99.90
3994;DHT22;2011;48.238;13.948;2022-12-10T01:39:11;1.30;99.90
3994;DHT22;2011;48.238;13.948;2022-12-10T01:41:40;1.30;99.90
3994;DHT22;2011;48.238;13.948;2022-12-10T01:47:09;1.30;99.90
3994;DHT22;2011;48.238;13.948;2022-12-10T01:49:37;1.40;99.90
3994;DHT22;2011;48.238;13.948;2022-12-10T01:52:07;1.40;99.90
3994;DHT22;2011;48.238;13.948;2022-12-10T01:54:37;1.40;99.90
3994;DHT22;2011;48.238;13.948;2022-12-10T01:57:06;1.50;99.90
3994;DHT22;2011;48.238;13.948;2022-12-10T01:59:35;1.50;99.90
3994;DHT22;2011;48.238;13.948;2022-12-10T02:02:10;1.60;99.90
3994;DHT22;2011;48.238;13.948;2022-12-10T02:04:44;1.60;99.90
3994;DHT22;2011;48.238;13.948;2022-12-10T02:07:17;1.50;99.90
3994;DHT22;2011;48.238;13.948;2022-12-10T02:09:52;1.60;99.90
3994;DHT22;2011;48.238;13.948;2022-12-10T02:12:24;1.50;99.90
3994;DHT22;2011;48.238;13.948;2022-12-10T02:14:56;1.50;99.90
3994;DHT22;2011;48.238;13.948;2022-12-10T02:17:29;1.60;99.90
3994;DHT22;2011;48.238;13.948;2022-12-10T02:20:04;1.60;99.90
3994;DHT22;2011;48.238;13.948;2022-12-10T02:22:36;1.60;99.90
3994;DHT22;2011;48.238;13.948;2022-12-10T02:25:05;1.60;99.90
3994;DHT22;2011;48.238;13.948;2022-12-10T02:27:37;1.70;99.90
3994;DHT22;2011;48.238;13.948;2022-12-10T02:30:09;1.60;99.90
3994;DHT22;2011;48.238;13.948;2022-12-10T02:32:38;1.60;99.90
3994;DHT22;2011;48.238;13.948;2022-12-10T02:35:10;1.60;99.90
3994;DHT22;2011;48.238;13.948;2022-12-10T02:37:41;1.50;99.90
3994;DHT22;2011;48.238;13.948;2022-12-10T02:40:15;1.50;99.90
3994;DHT22;2011;48.238;13.948;2022-12-10T02:42:47;1.50;99.90
3994;DHT22;2011;48.238;13.948;2022-12-10T02:45:17;1.60;99.90
3994;DHT22;2011;48.238;13.948;2022-12-10T02:47:44;1.60;99.90
3994;DHT22;2011;48.238;13.948;2022-12-10T02:50:13;1.60;99.90
3994;DHT22;2011;48.238;13.948;2022-12-10T02:52:41;1.60;99.90
3994;DHT22;2011;48.238;13.948;2022-12-10T02:55:10;1.60;99.90
3994;DHT22;2011;48.238;13.948;2022-12-10T02:57:44;1.60;99.90
3994;DHT22;2011;48.238;13.948;2022-12-10T03:00:19;1.60;99.90
3994;DHT22;2011;48.238;13.948;2022-12-10T03:03:07;1.60;99.90
3994;DHT22;2011;48.238;13.948;2022-12-10T03:05:40;1.60;99.90
3994;DHT22;2011;48.238;13.948;2022-12-10T03:08:13;1.60;99.90
3994;DHT22;2011;48.238;13.948;2022-12-10T03:10:48;1.60;99.90
3994;DHT22;2011;48.238;13.948;2022-12-10T03:13:19;1.60;99.90
3994;DHT22;2011;48.238;13.948;2022-12-10T03:15:49;1.60;99.90
3994;DHT22;2011;48.238;13.948;2022-12-10T03:18:19;1.60;99.90
3994;DHT22;2011;48.238;13.948;2022-12-10T03:20:47;1.60;99.90
3994;DHT22;2011;48.238;13.948;2022-12-10T03:23:16;1.50;99.90
3994;DHT22;2011;48.238;13.948;2022-12-10T03:25:47;1.50;99.90
3994;DHT22;2011;48.238;13.948;2022-12-10T03:28:15;1.40;99.90
3994;DHT22;2011;48.238;13.948;2022-12-10T03:30:44;1.40;99.90
3994;DHT22;2011;48.238;13.948;2022-12-10T03:33:14;1.40;99.90
3994;DHT22;2011;48.238;13.948;2022-12-10T03:35:41;1.40;99.90
3994;DHT22;2011;48.238;13.948;2022-12-10T03:38:10;1.40;99.90
3994;DHT22;2011;48.238;13.948;2022-12-10T03:40:37;1.40;99.90
3994;DHT22;2011;48.238;13.948;2022-12-10T03:43:04;1.40;99.90
3994;DHT22;2011;48.238;13.948;2022-12-10T03:45:30;1.50;99.90
3994;DHT22;2011;48.238;13.948;2022-12-10T03:47:57;1.50;99.90
3994;DHT22;2011;48.238;13.948;2022-12-10T03:50:26;1.50;99.90
3994;DHT22;2011;48.238;13.948;2022-12-10T03:52:52;1.50;99.90
3994;DHT22;2011;48.238;13.948;2022-12-10T03:55:19;1.50;99.90
3994;DHT22;2011;48.238;13.948;2022-12-10T03:57:46;1.50;99.90
3994;DHT22;2011;48.238;13.948;2022-12-10T04:00:14;1.50;99.90
3994;DHT22;2011;48.238;13.948;2022-12-10T04:02:41;1.50;99.90
3994;DHT22;2011;48.238;13.948;2022-12-10T04:05:08;1.50;99.90
3994;DHT22;2011;48.238;13.948;2022-12-10T04:07:37;1.50;99.90
3994;DHT22;2011;48.238;13.948;2022-12-10T04:10:04;1.50;99.90
3994;DHT22;2011;48.238;13.948;2022-12-10T04:12:31;1.50;99.90
3994;DHT22;2011;48.238;13.948;2022-12-10T04:14:58;1.50;99.90
3994;DHT22;2011;48.238;13.948;2022-12-10T04:17:42;1.50;99.90
3994;DHT22;2011;48.238;13.948;2022-12-10T04:20:10;1.50;99.90
3994;DHT22;2011;48.238;13.948;2022-12-10T04:22:58;1.50;99.90
3994;DHT22;2011;48.238;13.948;2022-12-10T04:25:42;1.50;99.90
3994;DHT22;2011;48.238;13.948;2022-12-10T04:28:27;1.50;99.90
3994;DHT22;2011;48.238;13.948;2022-12-10T04:30:54;1.50;99.90
3994;DHT22;2011;48.238;13.948;2022-12-10T04:33:21;1.50;99.90
3994;DHT22;2011;48.238;13.948;2022-12-10T04:35:48;1.50;99.90
3994;DHT22;2011;48.238;13.948;2022-12-10T04:38:16;1.60;99.90
3994;DHT22;2011;48.238;13.948;2022-12-10T04:40:43;1.50;99.90
3994;DHT22;2011;48.238;13.948;2022-12-10T04:43:10;1.60;99.90
3994;DHT22;2011;48.238;13.948;2022-12-10T04:45:37;1.50;99.90
3994;DHT22;2011;48.238;13.948;2022-12-10T04:48:04;1.60;99.90
3994;DHT22;2011;48.238;13.948;2022-12-10T04:50:31;1.60;99.90
3994;DHT22;2011;48.238;13.948;2022-12-10T04:52:57;1.60;99.90
3994;DHT22;2011;48.238;13.948;2022-12-10T04:55:26;1.60;99.90
3994;DHT22;2011;48.238;13.948;2022-12-10T04:57:53;1.50;99.90
3994;DHT22;2011;48.238;13.948;2022-12-10T05:00:19;1.50;99.90
3994;DHT22;2011;48.238;13.948;2022-12-10T05:02:49;1.50;99.90
3994;DHT22;2011;48.238;13.948;2022-12-10T05:05:16;1.50;99.90
3994;DHT22;2011;48.238;13.948;2022-12-10T05:07:43;1.60;99.90
3994;DHT22;2011;48.238;13.948;2022-12-10T05:10:10;1.50;99.90
3994;DHT22;2011;48.238;13.948;2022-12-10T05:12:38;1.60;99.90
3994;DHT22;2011;48.238;13.948;2022-12-10T05:15:06;1.60;99.90
3994;DHT22;2011;48.238;13.948;2022-12-10T05:17:33;1.60;99.90
3994;DHT22;2011;48.238;13.948;2022-12-10T05:20:00;1.60;99.90
3994;DHT22;2011;48.238;13.948;2022-12-10T05:22:27;1.60;99.90
3994;DHT22;2011;48.238;13.948;2022-12-10T05:25:11;1.70;99.90
3994;DHT22;2011;48.238;13.948;2022-12-10T05:27:39;1.70;99.90
3994;DHT22;2011;48.238;13.948;2022-12-10T05:30:08;1.70;99.90
3994;DHT22;2011;48.238;13.948;2022-12-10T05:32:35;1.70;99.90
3994;DHT22;2011;48.238;13.948;2022-12-10T05:35:02;1.70;99.90
3994;DHT22;2011;48.238;13.948;2022-12-10T05:37:30;1.60;99.90
3994;DHT22;2011;48.238;13.948;2022-12-10T05:39:57;1.60;99.90
3994;DHT22;2011;48.238;13.948;2022-12-10T05:42:23;1.60;99.90
3994;DHT22;2011;48.238;13.948;2022-12-10T05:44:52;1.60;99.90
3994;DHT22;2011;48.238;13.948;2022-12-10T05:47:19;1.60;99.90
3994;DHT22;2011;48.238;13.948;2022-12-10T05:49:45;1.60;99.90
3994;DHT22;2011;48.238;13.948;2022-12-10T05:52:13;1.60;99.90
3994;DHT22;2011;48.238;13.948;2022-12-10T05:54:40;1.60;99.90
3994;DHT22;2011;48.238;13.948;2022-12-10T05:57:07;1.60;99.90
3994;DHT22;2011;48.238;13.948;2022-12-10T05:59:34;1.60;99.90
3994;DHT22;2011;48.238;13.948;2022-12-10T06:02:02;1.60;99.90
3994;DHT22;2011;48.238;13.948;2022-12-10T06:04:29;1.60;99.90
3994;DHT22;2011;48.238;13.948;2022-12-10T06:06:56;1.60;99.90
3994;DHT22;2011;48.238;13.948;2022-12-10T06:09:23;1.60;99.90
3994;DHT22;2011;48.238;13.948;2022-12-10T06:11:49;1.70;99.90
3994;DHT22;2011;48.238;13.948;2022-12-10T06:14:16;1.60;99.90
3994;DHT22;2011;48.238;13.948;2022-12-10T06:16:43;1.70;99.90
3994;DHT22;2011;48.238;13.948;2022-12-10T06:19:11;1.70;99.90
3994;DHT22;2011;48.238;13.948;2022-12-10T06:21:38;1.70;99.90
3994;DHT22;2011;48.238;13.948;2022-12-10T06:24:06;1.70;99.90
3994;DHT22;2011;48.238;13.948;2022-12-10T06:26:33;1.70;99.90
3994;DHT22;2011;48.238;13.948;2022-12-10T06:29:00;1.70;99.90
3994;DHT22;2011;48.238;13.948;2022-12-10T06:31:27;1.70;99.90
3994;DHT22;2011;48.238;13.948;2022-12-10T06:33:54;1.70;99.90
3994;DHT22;2011;48.238;13.948;2022-12-10T06:36:23;1.70;99.90
3994;DHT22;2011;48.238;13.948;2022-12-10T06:38:50;1.70;99.90
3994;DHT22;2011;48.238;13.948;2022-12-10T06:41:18;1.70;99.90
3994;DHT22;2011;48.238;13.948;2022-12-10T06:43:46;1.70;99.90
3994;DHT22;2011;48.238;13.948;2022-12-10T06:46:15;1.70;99.90
3994;DHT22;2011;48.238;13.948;2022-12-10T06:48:43;1.70;99.90
3994;DHT22;2011;48.238;13.948;2022-12-10T06:51:11;1.70;99.90
3994;DHT22;2011;48.238;13.948;2022-12-10T06:53:40;1.70;99.90
3994;DHT22;2011;48.238;13.948;2022-12-10T06:56:09;1.70;99.90
3994;DHT22;2011;48.238;13.948;2022-12-10T06:58:37;1.70;99.90
3994;DHT22;2011;48.238;13.948;2022-12-10T07:01:07;1.70;99.90
3994;DHT22;2011;48.238;13.948;2022-12-10T07:03:34;1.70;99.90
3994;DHT22;2011;48.238;13.948;2022-12-10T07:06:02;1.70;99.90
3994;DHT22;2011;48.238;13.948;2022-12-10T07:08:30;1.70;99.90
3994;DHT22;2011;48.238;13.948;2022-12-10T07:10:58;1.70;99.90
3994;DHT22;2011;48.238;13.948;2022-12-10T07:13:25;1.70;99.90
3994;DHT22;2011;48.238;13.948;2022-12-10T07:15:52;1.70;99.90
3994;DHT22;2011;48.238;13.948;2022-12-10T07:18:19;1.70;99.90
3994;DHT22;2011;48.238;13.948;2022-12-10T07:20:46;1.70;99.90
3994;DHT22;2011;48.238;13.948;2022-12-10T07:23:13;1.70;99.90
3994;DHT22;2011;48.238;13.948;2022-12-10T07:25:39;1.80;99.90
3994;DHT22;2011;48.238;13.948;2022-12-10T07:28:08;1.80;99.90
3994;DHT22;2011;48.238;13.948;2022-12-10T07:30:35;1.80;99.90
3994;DHT22;2011;48.238;13.948;2022-12-10T07:33:02;1.80;99.90
3994;DHT22;2011;48.238;13.948;2022-12-10T07:35:29;1.80;99.90
3994;DHT22;2011;48.238;13.948;2022-12-10T07:37:56;1.80;99.90
3994;DHT22;2011;48.238;13.948;2022-12-10T07:40:23;1.80;99.90
3994;DHT22;2011;48.238;13.948;2022-12-10T07:42:50;1.90;99.90
3994;DHT22;2011;48.238;13.948;2022-12-10T07:45:18;1.90;99.90
3994;DHT22;2011;48.238;13.948;2022-12-10T07:47:45;1.90;99.90
3994;DHT22;2011;48.238;13.948;2022-12-10T07:50:12;1.90;99.90
3994;DHT22;2011;48.238;13.948;2022-12-10T07:52:39;1.90;99.90
3994;DHT22;2011;48.238;13.948;2022-12-10T07:55:06;1.90;99.90
3994;DHT22;2011;48.238;13.948;2022-12-10T07:57:33;1.90;99.90
3994;DHT22;2011;48.238;13.948;2022-12-10T08:00:00;2.00;99.90
3994;DHT22;2011;48.238;13.948;2022-12-10T08:02:29;2.00;99.90
3994;DHT22;2011;48.238;13.948;2022-12-10T08:04:55;2.00;99.90
3994;DHT22;2011;48.238;13.948;2022-12-10T08:07:22;2.00;99.90
3994;DHT22;2011;48.238;13.948;2022-12-10T08:09:49;2.00;99.90
3994;DHT22;2011;48.238;13.948;2022-12-10T08:12:16;2.10;99.90
3994;DHT22;2011;48.238;13.948;2022-12-10T08:14:43;2.10;99.90
3994;DHT22;2011;48.238;13.948;2022-12-10T08:17:10;2.10;99.90
3994;DHT22;2011;48.238;13.948;2022-12-10T08:19:38;2.20;99.90
3994;DHT22;2011;48.238;13.948;2022-12-10T08:22:05;2.20;99.90
3994;DHT22;2011;48.238;13.948;2022-12-10T08:24:32;2.20;99.90
3994;DHT22;2011;48.238;13.948;2022-12-10T08:26:59;2.20;99.90
3994;DHT22;2011;48.238;13.948;2022-12-10T08:29:25;2.20;99.90
3994;DHT22;2011;48.238;13.948;2022-12-10T08:31:52;2.10;99.90
3994;DHT22;2011;48.238;13.948;2022-12-10T08:34:19;2.10;99.90
3994;DHT22;2011;48.238;13.948;2022-12-10T08:36:47;2.10;99.90
3994;DHT22;2011;48.238;13.948;2022-12-10T08:39:14;2.10;99.90
3994;DHT22;2011;48.238;13.948;2022-12-10T08:41:42;2.10;99.90
3994;DHT22;2011;48.238;13.948;2022-12-10T08:44:10;2.00;99.90
3994;DHT22;2011;48.238;13.948;2022-12-10T08:46:37;2.00;99.90
3994;DHT22;2011;48.238;13.948;2022-12-10T08:49:05;2.00;99.90
3994;DHT22;2011;48.238;13.948;2022-12-10T08:51:32;2.00;99.90
3994;DHT22;2011;48.238;13.948;2022-12-10T08:54:01;2.10;99.90
3994;DHT22;2011;48.238;13.948;2022-12-10T08:56:28;2.10;99.90
3994;DHT22;2011;48.238;13.948;2022-12-10T08:58:54;2.10;99.90
3994;DHT22;2011;48.238;13.948;2022-12-10T09:01:22;2.20;99.90
3994;DHT22;2011;48.238;13.948;2022-12-10T09:03:49;2.20;99.90
3994;DHT22;2011;48.238;13.948;2022-12-10T09:06:18;2.20;99.90
3994;DHT22;2011;48.238;13.948;2022-12-10T09:08:45;2.20;99.90
3994;DHT22;2011;48.238;13.948;2022-12-10T09:11:15;2.30;99.90
3994;DHT22;2011;48.238;13.948;2022-12-10T09:13:43;2.30;99.90
3994;DHT22;2011;48.238;13.948;2022-12-10T09:16:10;2.30;99.90
3994;DHT22;2011;48.238;13.948;2022-12-10T09:18:37;2.40;99.90
3994;DHT22;2011;48.238;13.948;2022-12-10T09:21:05;2.40;99.90
3994;DHT22;2011;48.238;13.948;2022-12-10T09:23:32;2.40;99.90
3994;DHT22;2011;48.238;13.948;2022-12-10T09:25:59;2.40;99.90
3994;DHT22;2011;48.238;13.948;2022-12-10T09:28:28;2.40;99.90
3994;DHT22;2011;48.238;13.948;2022-12-10T09:30:55;2.50;99.90
3994;DHT22;2011;48.238;13.948;2022-12-10T09:33:23;2.50;99.90
3994;DHT22;2011;48.238;13.948;2022-12-10T09:35:50;2.50;99.90
3994;DHT22;2011;48.238;13.948;2022-12-10T09:38:17;2.50;99.90
3994;DHT22;2011;48.238;13.948;2022-12-10T09:40:48;2.60;99.90
3994;DHT22;2011;48.238;13.948;2022-12-10T09:43:23;2.60;99.90
3994;DHT22;2011;48.238;13.948;2022-12-10T09:46:02;2.60;99.90
3994;DHT22;2011;48.238;13.948;2022-12-10T09:48:40;2.70;99.90
3994;DHT22;2011;48.238;13.948;2022-12-10T09:51:20;2.70;99.90
3994;DHT22;2011;48.238;13.948;2022-12-10T09:53:49;2.70;99.90
3994;DHT22;2011;48.238;13.948;2022-12-10T09:56:26;2.60;99.90
3994;DHT22;2011;48.238;13.948;2022-12-10T09:58:55;2.80;99.90
3994;DHT22;2011;48.238;13.948;2022-12-10T10:01:27;2.80;99.90
3994;DHT22;2011;48.238;13.948;2022-12-10T10:03:55;2.90;99.90
3994;DHT22;2011;48.238;13.948;2022-12-10T10:06:23;2.90;99.90
3994;DHT22;2011;48.238;13.948;2022-12-10T10:08:54;3.00;99.90
3994;DHT22;2011;48.238;13.948;2022-12-10T10:11:26;3.00;99.90
3994;DHT22;2011;48.238;13.948;2022-12-10T10:13:58;3.00;99.90
3994;DHT22;2011;48.238;13.948;2022-12-10T10:16:30;3.10;99.90
3994;DHT22;2011;48.238;13.948;2022-12-10T10:19:01;3.10;99.90
3994;DHT22;2011;48.238;13.948;2022-12-10T10:21:31;3.10;99.90
3994;DHT22;2011;48.238;13.948;2022-12-10T10:23:59;3.10;99.90
3994;DHT22;2011;48.238;13.948;2022-12-10T10:26:27;3.10;99.90
3994;DHT22;2011;48.238;13.948;2022-12-10T10:28:57;3.10;99.90
3994;DHT22;2011;48.238;13.948;2022-12-10T10:31:30;3.10;99.90
3994;DHT22;2011;48.238;13.948;2022-12-10T10:33:59;3.20;99.90
3994;DHT22;2011;48.238;13.948;2022-12-10T10:36:28;3.20;99.90
3994;DHT22;2011;48.238;13.948;2022-12-10T10:38:55;3.30;99.90
3994;DHT22;2011;48.238;13.948;2022-12-10T10:41:24;3.30;99.90
3994;DHT22;2011;48.238;13.948;2022-12-10T10:43:59;3.30;99.90
3994;DHT22;2011;48.238;13.948;2022-12-10T10:46:28;3.40;99.90
3994;DHT22;2011;48.238;13.948;2022-12-10T10:49:19;3.40;99.90
3994;DHT22;2011;48.238;13.948;2022-12-10T10:51:46;3.40;99.90
3994;DHT22;2011;48.238;13.948;2022-12-10T10:54:31;3.40;99.90
3994;DHT22;2011;48.238;13.948;2022-12-10T10:57:01;3.50;99.90
3994;DHT22;2011;48.238;13.948;2022-12-10T10:59:31;3.40;99.90
3994;DHT22;2011;48.238;13.948;2022-12-10T11:02:03;3.40;99.90
3994;DHT22;2011;48.238;13.948;2022-12-10T11:04:36;3.40;99.90
3994;DHT22;2011;48.238;13.948;2022-12-10T11:07:05;3.40;99.90
3994;DHT22;2011;48.238;13.948;2022-12-10T11:09:39;3.40;99.90
3994;DHT22;2011;48.238;13.948;2022-12-10T11:12:22;3.50;99.90
3994;DHT22;2011;48.238;13.948;2022-12-10T11:14:53;3.50;99.90
3994;DHT22;2011;48.238;13.948;2022-12-10T11:17:24;3.40;99.90
3994;DHT22;2011;48.238;13.948;2022-12-10T11:19:57;3.30;99.90
3994;DHT22;2011;48.238;13.948;2022-12-10T11:22:26;3.30;99.90
3994;DHT22;2011;48.238;13.948;2022-12-10T11:24:53;3.20;99.90
3994;DHT22;2011;48.238;13.948;2022-12-10T11:27:35;3.10;99.90
3994;DHT22;2011;48.238;13.948;2022-12-10T11:30:05;3.10;99.90
3994;DHT22;2011;48.238;13.948;2022-12-10T11:33:03;3.10;99.90
3994;DHT22;2011;48.238;13.948;2022-12-10T11:35:42;3.10;99.90
3994;DHT22;2011;48.238;13.948;2022-12-10T11:38:19;3.10;99.90
3994;DHT22;2011;48.238;13.948;2022-12-10T11:40:50;3.20;99.90
3994;DHT22;2011;48.238;13.948;2022-12-10T11:43:35;3.30;99.90
3994;DHT22;2011;48.238;13.948;2022-12-10T11:46:15;3.30;99.90
3994;DHT22;2011;48.238;13.948;2022-12-10T11:48:59;3.30;99.90
3994;DHT22;2011;48.238;13.948;2022-12-10T11:51:34;3.40;99.90
3994;DHT22;2011;48.238;13.948;2022-12-10T11:54:28;3.40;99.90
3994;DHT22;2011;48.238;13.948;2022-12-10T11:57:05;3.40;99.90
3994;DHT22;2011;48.238;13.948;2022-12-10T11:59:42;3.40;99.90
3994;DHT22;2011;48.238;13.948;2022-12-10T12:02:29;3.40;99.90
3994;DHT22;2011;48.238;13.948;2022-12-10T12:05:19;3.40;99.90
3994;DHT22;2011;48.238;13.948;2022-12-10T12:07:52;3.40;99.90
3994;DHT22;2011;48.238;13.948;2022-12-10T12:10:51;3.40;99.90
3994;DHT22;2011;48.238;13.948;2022-12-10T12:13:23;3.40;99.90
3994;DHT22;2011;48.238;13.948;2022-12-10T12:15:54;3.30;99.90
3994;DHT22;2011;48.238;13.948;2022-12-10T12:18:28;3.30;99.90
3994;DHT22;2011;48.238;13.948;2022-12-10T12:21:05;3.30;99.90
3994;DHT22;2011;48.238;13.948;2022-12-10T12:23:43;3.30;99.90
3994;DHT22;2011;48.238;13.948;2022-12-10T12:26:14;3.30;99.90
3994;DHT22;2011;48.238;13.948;2022-12-10T12:28:47;3.40;99.90
3994;DHT22;2011;48.238;13.948;2022-12-10T12:31:20;3.40;99.90
3994;DHT22;2011;48.238;13.948;2022-12-10T12:33:50;3.40;99.90
3994;DHT22;2011;48.238;13.948;2022-12-10T12:36:21;3.40;99.90
3994;DHT22;2011;48.238;13.948;2022-12-10T12:38:53;3.40;99.90
3994;DHT22;2011;48.238;13.948;2022-12-10T12:41:29;3.40;99.90
3994;DHT22;2011;48.238;13.948;2022-12-10T12:44:02;3.40;99.90
3994;DHT22;2011;48.238;13.948;2022-12-10T12:46:35;3.30;99.90
3994;DHT22;2011;48.238;13.948;2022-12-10T12:49:09;3.20;99.90
3994;DHT22;2011;48.238;13.948;2022-12-10T12:51:40;3.20;99.90
3994;DHT22;2011;48.238;13.948;2022-12-10T12:54:10;3.20;99.90
3994;DHT22;2011;48.238;13.948;2022-12-10T12:56:54;3.20;99.90
3994;DHT22;2011;48.238;13.948;2022-12-10T12:59:38;3.10;99.90
3994;DHT22;2011;48.238;13.948;2022-12-10T13:02:19;3.00;99.90
3994;DHT22;2011;48.238;13.948;2022-12-10T13:04:47;3.00;99.90
3994;DHT22;2011;48.238;13.948;2022-12-10T13:07:30;2.90;99.90
3994;DHT22;2011;48.238;13.948;2022-12-10T13:10:22;2.80;99.90
3994;DHT22;2011;48.238;13.948;2022-12-10T13:12:50;2.80;99.90
3994;DHT22;2011;48.238;13.948;2022-12-10T13:15:20;2.80;99.90
3994;DHT22;2011;48.238;13.948;2022-12-10T13:18:19;2.70;99.90
3994;DHT22;2011;48.238;13.948;2022-12-10T13:20:48;2.80;99.90
3994;DHT22;2011;48.238;13.948;2022-12-10T13:23:34;2.80;99.90
3994;DHT22;2011;48.238;13.948;2022-12-10T13:26:23;2.80;99.90
3994;DHT22;2011;48.238;13.948;2022-12-10T13:28:52;2.80;99.90
3994;DHT22;2011;48.238;13.948;2022-12-10T13:31:34;2.90;99.90
3994;DHT22;2011;48.238;13.948;2022-12-10T13:34:21;2.90;99.90
3994;DHT22;2011;48.238;13.948;2022-12-10T13:37:05;2.90;99.90
3994;DHT22;2011;48.238;13.948;2022-12-10T13:39:36;2.90;99.90
3994;DHT22;2011;48.238;13.948;2022-12-10T13:42:30;2.90;99.90
3994;DHT22;2011;48.238;13.948;2022-12-10T13:45:35;2.80;99.90
3994;DHT22;2011;48.238;13.948;2022-12-10T13:48:22;2.80;99.90
3994;DHT22;2011;48.238;13.948;2022-12-10T13:50:54;2.70;99.90
3994;DHT22;2011;48.238;13.948;2022-12-10T13:53:32;2.70;99.90
3994;DHT22;2011;48.238;13.948;2022-12-10T13:56:13;2.70;99.90
3994;DHT22;2011;48.238;13.948;2022-12-10T13:58:46;2.70;99.90
3994;DHT22;2011;48.238;13.948;2022-12-10T14:01:29;2.70;99.90
3994;DHT22;2011;48.238;13.948;2022-12-10T14:04:22;2.60;99.90
3994;DHT22;2011;48.238;13.948;2022-12-10T14:06:54;2.60;99.90
3994;DHT22;2011;48.238;13.948;2022-12-10T14:09:23;2.50;99.90
3994;DHT22;2011;48.238;13.948;2022-12-10T14:11:56;2.50;99.90
3994;DHT22;2011;48.238;13.948;2022-12-10T14:14:33;2.40;99.90
3994;DHT22;2011;48.238;13.948;2022-12-10T14:17:03;2.40;99.90
3994;DHT22;2011;48.238;13.948;2022-12-10T14:19:33;2.40;99.90
3994;DHT22;2011;48.238;13.948;2022-12-10T14:22:04;2.50;99.90
3994;DHT22;2011;48.238;13.948;2022-12-10T14:24:34;2.40;99.90
3994;DHT22;2011;48.238;13.948;2022-12-10T14:27:11;2.40;99.90
3994;DHT22;2011;48.238;13.948;2022-12-10T14:29:44;2.30;99.90
3994;DHT22;2011;48.238;13.948;2022-12-10T14:32:13;2.30;99.90
3994;DHT22;2011;48.238;13.948;2022-12-10T14:34:41;2.30;99.90
3994;DHT22;2011;48.238;13.948;2022-12-10T14:37:12;2.30;99.90
3994;DHT22;2011;48.238;13.948;2022-12-10T14:39:40;2.40;99.90
3994;DHT22;2011;48.238;13.948;2022-12-10T14:42:14;2.40;99.90
3994;DHT22;2011;48.238;13.948;2022-12-10T14:44:43;2.40;99.90
3994;DHT22;2011;48.238;13.948;2022-12-10T14:47:14;2.50;99.90
3994;DHT22;2011;48.238;13.948;2022-12-10T14:49:43;2.50;99.90
3994;DHT22;2011;48.238;13.948;2022-12-10T14:52:15;2.50;99.90
3994;DHT22;2011;48.238;13.948;2022-12-10T14:54:43;2.50;99.90
3994;DHT22;2011;48.238;13.948;2022-12-10T14:57:17;2.50;99.90
3994;DHT22;2011;48.238;13.948;2022-12-10T14:59:47;2.50;99.90
3994;DHT22;2011;48.238;13.948;2022-12-10T15:02:19;2.50;99.90
3994;DHT22;2011;48.238;13.948;2022-12-10T15:04:48;2.50;99.90
3994;DHT22;2011;48.238;13.948;2022-12-10T15:07:18;2.40;99.90
3994;DHT22;2011;48.238;13.948;2022-12-10T15:09:47;2.30;99.90
3994;DHT22;2011;48.238;13.948;2022-12-10T15:12:33;2.40;99.90
3994;DHT22;2011;48.238;13.948;2022-12-10T15:15:07;2.40;99.90
3994;DHT22;2011;48.238;13.948;2022-12-10T15:17:39;2.40;99.90
3994;DHT22;2011;48.238;13.948;2022-12-10T15:20:19;2.40;99.90
3994;DHT22;2011;48.238;13.948;2022-12-10T15:22:46;2.40;99.90
3994;DHT22;2011;48.238;13.948;2022-12-10T15:25:20;2.40;99.90
3994;DHT22;2011;48.238;13.948;2022-12-10T15:27:58;2.40;99.90
3994;DHT22;2011;48.238;13.948;2022-12-10T15:30:34;2.40;99.90
3994;DHT22;2011;48.238;13.948;2022-12-10T15:33:02;2.40;99.90
3994;DHT22;2011;48.238;13.948;2022-12-10T15:35:29;2.30;99.90
3994;DHT22;2011;48.238;13.948;2022-12-10T15:37:56;2.30;99.90
3994;DHT22;2011;48.238;13.948;2022-12-10T15:40:28;2.20;99.90
3994;DHT22;2011;48.238;13.948;2022-12-10T15:43:11;2.10;99.90
3994;DHT22;2011;48.238;13.948;2022-12-10T15:45:40;2.10;99.90
3994;DHT22;2011;48.238;13.948;2022-12-10T15:48:08;2.00;99.90
3994;DHT22;2011;48.238;13.948;2022-12-10T15:50:36;2.00;99.90
3994;DHT22;2011;48.238;13.948;2022-12-10T15:53:03;2.00;99.90
3994;DHT22;2011;48.238;13.948;2022-12-10T15:55:30;1.90;99.90
3994;DHT22;2011;48.238;13.948;2022-12-10T15:57:58;1.90;99.90
3994;DHT22;2011;48.238;13.948;2022-12-10T16:00:27;1.90;99.90
3994;DHT22;2011;48.238;13.948;2022-12-10T16:02:55;1.90;99.90
3994;DHT22;2011;48.238;13.948;2022-12-10T16:05:26;1.90;99.90
3994;DHT22;2011;48.238;13.948;2022-12-10T16:07:55;1.90;99.90
3994;DHT22;2011;48.238;13.948;2022-12-10T16:10:24;1.80;99.90
3994;DHT22;2011;48.238;13.948;2022-12-10T16:12:59;1.80;99.90
3994;DHT22;2011;48.238;13.948;2022-12-10T16:15:30;1.90;99.90
3994;DHT22;2011;48.238;13.948;2022-12-10T16:18:01;1.90;99.90
3994;DHT22;2011;48.238;13.948;2022-12-10T16:20:29;2.00;99.90
3994;DHT22;2011;48.238;13.948;2022-12-10T16:22:58;1.90;99.90
3994;DHT22;2011;48.238;13.948;2022-12-10T16:25:26;1.90;99.90
3994;DHT22;2011;48.238;13.948;2022-12-10T16:27:54;1.80;99.90